sensor_id;sensor_type;location;lat;lon;timestamp;temperature;humidity
5980;DHT22;3016;50.308;8.258;2023-05-15T00:00:40;9.40;1.00
5980;DHT22;3016;50.308;8.258;2023-05-15T00:03:41;9.40;1.00
5980;DHT22;3016;50.308;8.258;2023-05-15T00:06:42;9.30;1.00
5980;DHT22;3016;50.308;8.258;2023-05-15T00:09:43;9.20;1.00
5980;DHT22;3016;50.308;8.258;2023-05-15T00:12:43;9.20;1.00
5980;DHT22;3016;50.308;8.258;2023-05-15T00:15:44;9.10;1.00
5980;DHT22;3016;50.308;8.258;2023-05-15T00:18:45;9.00;1.00
5980;DHT22;3016;50.308;8.258;2023-05-15T00:21:46;9.00;1.00
5980;DHT22;3016;50.308;8.258;2023-05-15T00:24:46;9.00;1.00
5980;DHT22;3016;50.308;8.258;2023-05-15T00:27:47;9.00;1.00
5980;DHT22;3016;50.308;8.258;2023-05-15T00:30:48;8.90;1.00
5980;DHT22;3016;50.308;8.258;2023-05-15T00:33:49;8.90;1.00
5980;DHT22;3016;50.308;8.258;2023-05-15T00:36:49;8.80;1.00
5980;DHT22;3016;50.308;8.258;2023-05-15T00:39:50;8.70;1.00
5980;DHT22;3016;50.308;8.258;2023-05-15T00:42:51;8.70;2.50
5980;DHT22;3016;50.308;8.258;2023-05-15T00:45:53;8.60;2.40
5980;DHT22;3016;50.308;8.258;2023-05-15T00:48:55;8.70;2.90
5980;DHT22;3016;50.308;8.258;2023-05-15T00:51:56;8.60;1.00
5980;DHT22;3016;50.308;8.258;2023-05-15T00:54:58;8.50;1.00
5980;DHT22;3016;50.308;8.258;2023-05-15T00:58:00;8.50;1.00
5980;DHT22;3016;50.308;8.258;2023-05-15T01:01:01;8.40;1.00
5980;DHT22;3016;50.308;8.258;2023-05-15T01:04:03;8.40;1.60
5980;DHT22;3016;50.308;8.258;2023-05-15T01:07:04;8.40;2.30
5980;DHT22;3016;50.308;8.258;2023-05-15T01:10:05;8.40;1.00
5980;DHT22;3016;50.308;8.258;2023-05-15T01:13:08;8.30;1.00
5980;DHT22;3016;50.308;8.258;2023-05-15T01:16:09;8.30;1.00
5980;DHT22;3016;50.308;8.258;2023-05-15T01:19:10;8.20;1.00
5980;DHT22;3016;50.308;8.258;2023-05-15T01:29:36;8.10;1.00
5980;DHT22;3016;50.308;8.258;2023-05-15T01:36:32;8.00;1.40
5980;DHT22;3016;50.308;8.258;2023-05-15T01:39:38;8.00;2.00
5980;DHT22;3016;50.308;8.258;2023-05-15T01:42:43;7.90;1.00
5980;DHT22;3016;50.308;8.258;2023-05-15T01:45:50;7.80;1.00
5980;DHT22;3016;50.308;8.258;2023-05-15T01:48:52;7.80;1.50
5980;DHT22;3016;50.308;8.258;2023-05-15T01:52:00;7.70;2.50
5980;DHT22;3016;50.308;8.258;2023-05-15T01:55:10;7.70;3.50
5980;DHT22;3016;50.308;8.258;2023-05-15T01:58:13;7.70;3.30
5980;DHT22;3016;50.308;8.258;2023-05-15T02:01:15;7.60;1.80
5980;DHT22;3016;50.308;8.258;2023-05-15T02:04:17;7.60;1.80
5980;DHT22;3016;50.308;8.258;2023-05-15T02:07:19;7.50;2.80
5980;DHT22;3016;50.308;8.258;2023-05-15T02:10:21;7.60;3.50
5980;DHT22;3016;50.308;8.258;2023-05-15T02:13:23;7.60;4.60
5980;DHT22;3016;50.308;8.258;2023-05-15T02:16:24;7.50;3.90
5980;DHT22;3016;50.308;8.258;2023-05-15T02:19:25;7.50;4.60
5980;DHT22;3016;50.308;8.258;2023-05-15T02:22:26;7.40;4.90
5980;DHT22;3016;50.308;8.258;2023-05-15T02:36:19;7.30;4.30
5980;DHT22;3016;50.308;8.258;2023-05-15T02:39:23;7.30;2.90
5980;DHT22;3016;50.308;8.258;2023-05-15T02:42:28;7.20;2.70
5980;DHT22;3016;50.308;8.258;2023-05-15T02:45:29;7.20;3.60
5980;DHT22;3016;50.308;8.258;2023-05-15T02:48:30;7.10;2.00
5980;DHT22;3016;50.308;8.258;2023-05-15T02:51:31;7.20;4.00
5980;DHT22;3016;50.308;8.258;2023-05-15T02:54:32;7.10;3.10
5980;DHT22;3016;50.308;8.258;2023-05-15T02:57:32;7.10;4.50
5980;DHT22;3016;50.308;8.258;2023-05-15T03:00:33;7.00;2.90
5980;DHT22;3016;50.308;8.258;2023-05-15T03:03:34;6.90;2.60
5980;DHT22;3016;50.308;8.258;2023-05-15T03:06:35;6.90;5.20
5980;DHT22;3016;50.308;8.258;2023-05-15T03:09:35;6.90;5.10
5980;DHT22;3016;50.308;8.258;2023-05-15T03:12:37;6.90;2.30
5980;DHT22;3016;50.308;8.258;2023-05-15T03:15:38;6.80;1.30
5980;DHT22;3016;50.308;8.258;2023-05-15T03:18:38;6.70;3.80
5980;DHT22;3016;50.308;8.258;2023-05-15T03:21:39;6.70;5.10
5980;DHT22;3016;50.308;8.258;2023-05-15T03:24:40;6.70;4.60
5980;DHT22;3016;50.308;8.258;2023-05-15T03:27:40;6.70;6.80
5980;DHT22;3016;50.308;8.258;2023-05-15T03:30:44;6.70;9.20
5980;DHT22;3016;50.308;8.258;2023-05-15T03:33:45;6.70;8.90
5980;DHT22;3016;50.308;8.258;2023-05-15T03:36:49;6.70;8.10
5980;DHT22;3016;50.308;8.258;2023-05-15T03:39:49;6.70;6.80
5980;DHT22;3016;50.308;8.258;2023-05-15T03:42:50;6.60;7.70
5980;DHT22;3016;50.308;8.258;2023-05-15T03:45:52;6.50;7.40
5980;DHT22;3016;50.308;8.258;2023-05-15T03:48:53;6.50;9.50
5980;DHT22;3016;50.308;8.258;2023-05-15T03:51:56;6.60;9.80
5980;DHT22;3016;50.308;8.258;2023-05-15T03:54:57;6.50;9.20
5980;DHT22;3016;50.308;8.258;2023-05-15T03:57:57;6.50;10.90
5980;DHT22;3016;50.308;8.258;2023-05-15T04:00:58;6.50;11.20
5980;DHT22;3016;50.308;8.258;2023-05-15T04:03:59;6.50;11.00
5980;DHT22;3016;50.308;8.258;2023-05-15T04:07:00;6.50;9.40
5980;DHT22;3016;50.308;8.258;2023-05-15T04:10:01;6.50;9.40
5980;DHT22;3016;50.308;8.258;2023-05-15T04:13:02;6.50;10.40
5980;DHT22;3016;50.308;8.258;2023-05-15T04:16:03;6.50;12.10
5980;DHT22;3016;50.308;8.258;2023-05-15T04:19:04;6.50;11.30
5980;DHT22;3016;50.308;8.258;2023-05-15T04:22:04;6.50;11.10
5980;DHT22;3016;50.308;8.258;2023-05-15T04:25:06;6.50;11.90
5980;DHT22;3016;50.308;8.258;2023-05-15T04:28:07;6.50;13.40
5980;DHT22;3016;50.308;8.258;2023-05-15T04:31:08;6.60;14.70
5980;DHT22;3016;50.308;8.258;2023-05-15T04:34:08;6.60;15.40
5980;DHT22;3016;50.308;8.258;2023-05-15T04:37:09;6.70;16.40
5980;DHT22;3016;50.308;8.258;2023-05-15T04:40:11;6.70;17.00
5980;DHT22;3016;50.308;8.258;2023-05-15T04:43:14;6.80;17.70
5980;DHT22;3016;50.308;8.258;2023-05-15T04:46:15;6.80;18.50
5980;DHT22;3016;50.308;8.258;2023-05-15T04:49:15;6.90;20.00
5980;DHT22;3016;50.308;8.258;2023-05-15T04:52:16;7.10;18.90
5980;DHT22;3016;50.308;8.258;2023-05-15T04:55:17;7.10;19.10
5980;DHT22;3016;50.308;8.258;2023-05-15T04:58:18;7.20;18.00
5980;DHT22;3016;50.308;8.258;2023-05-15T05:01:19;7.40;16.80
5980;DHT22;3016;50.308;8.258;2023-05-15T05:04:19;7.50;15.50
5980;DHT22;3016;50.308;8.258;2023-05-15T05:07:20;7.60;14.70
5980;DHT22;3016;50.308;8.258;2023-05-15T05:10:21;7.70;13.30
5980;DHT22;3016;50.308;8.258;2023-05-15T05:13:21;7.90;12.10
5980;DHT22;3016;50.308;8.258;2023-05-15T05:16:22;8.00;9.00
5980;DHT22;3016;50.308;8.258;2023-05-15T05:19:23;8.10;8.20
5980;DHT22;3016;50.308;8.258;2023-05-15T05:22:23;8.20;8.00
5980;DHT22;3016;50.308;8.258;2023-05-15T05:25:24;8.40;7.00
5980;DHT22;3016;50.308;8.258;2023-05-15T05:28:25;8.60;3.40
5980;DHT22;3016;50.308;8.258;2023-05-15T05:31:26;8.80;1.00
5980;DHT22;3016;50.308;8.258;2023-05-15T05:34:27;9.00;1.00
5980;DHT22;3016;50.308;8.258;2023-05-15T05:37:27;9.20;1.00
5980;DHT22;3016;50.308;8.258;2023-05-15T05:40:28;9.30;1.00
5980;DHT22;3016;50.308;8.258;2023-05-15T05:43:29;9.50;1.00
5980;DHT22;3016;50.308;8.258;2023-05-15T05:46:30;9.50;1.00
5980;DHT22;3016;50.308;8.258;2023-05-15T05:49:31;9.60;1.00
5980;DHT22;3016;50.308;8.258;2023-05-15T05:52:31;9.60;1.00
5980;DHT22;3016;50.308;8.258;2023-05-15T05:55:32;9.60;1.00
5980;DHT22;3016;50.308;8.258;2023-05-15T05:58:33;9.60;1.00
5980;DHT22;3016;50.308;8.258;2023-05-15T06:01:33;9.60;1.00
5980;DHT22;3016;50.308;8.258;2023-05-15T06:04:34;9.70;1.00
5980;DHT22;3016;50.308;8.258;2023-05-15T06:07:35;9.70;1.00
5980;DHT22;3016;50.308;8.258;2023-05-15T06:10:36;9.80;2.60
5980;DHT22;3016;50.308;8.258;2023-05-15T06:13:37;9.90;7.10
5980;DHT22;3016;50.308;8.258;2023-05-15T06:16:37;10.00;13.20
5980;DHT22;3016;50.308;8.258;2023-05-15T06:19:38;10.20;15.70
5980;DHT22;3016;50.308;8.258;2023-05-15T06:22:39;10.30;17.80
5980;DHT22;3016;50.308;8.258;2023-05-15T06:25:40;10.40;19.40
5980;DHT22;3016;50.308;8.258;2023-05-15T06:28:42;10.50;23.60
5980;DHT22;3016;50.308;8.258;2023-05-15T06:31:42;10.60;25.60
5980;DHT22;3016;50.308;8.258;2023-05-15T06:34:43;10.70;26.50
5980;DHT22;3016;50.308;8.258;2023-05-15T06:37:44;10.80;24.70
5980;DHT22;3016;50.308;8.258;2023-05-15T06:40:49;10.90;24.30
5980;DHT22;3016;50.308;8.258;2023-05-15T06:43:50;11.00;22.60
5980;DHT22;3016;50.308;8.258;2023-05-15T06:46:51;11.10;21.20
5980;DHT22;3016;50.308;8.258;2023-05-15T06:49:53;11.20;21.90
5980;DHT22;3016;50.308;8.258;2023-05-15T06:52:54;11.30;18.50
5980;DHT22;3016;50.308;8.258;2023-05-15T06:55:55;11.40;15.50
5980;DHT22;3016;50.308;8.258;2023-05-15T06:58:56;11.60;16.60
5980;DHT22;3016;50.308;8.258;2023-05-15T07:01:56;11.60;13.90
5980;DHT22;3016;50.308;8.258;2023-05-15T07:04:57;11.70;13.90
5980;DHT22;3016;50.308;8.258;2023-05-15T07:07:58;11.80;10.00
5980;DHT22;3016;50.308;8.258;2023-05-15T07:10:58;11.80;8.40
5980;DHT22;3016;50.308;8.258;2023-05-15T07:13:59;11.90;6.90
5980;DHT22;3016;50.308;8.258;2023-05-15T07:17:00;12.00;2.60
5980;DHT22;3016;50.308;8.258;2023-05-15T07:20:00;12.20;1.00
5980;DHT22;3016;50.308;8.258;2023-05-15T07:23:02;12.30;2.50
5980;DHT22;3016;50.308;8.258;2023-05-15T07:26:02;12.40;3.40
5980;DHT22;3016;50.308;8.258;2023-05-15T07:29:03;12.40;2.30
5980;DHT22;3016;50.308;8.258;2023-05-15T07:32:04;12.60;1.00
5980;DHT22;3016;50.308;8.258;2023-05-15T07:35:05;12.70;1.00
5980;DHT22;3016;50.308;8.258;2023-05-15T07:38:07;12.80;1.00
5980;DHT22;3016;50.308;8.258;2023-05-15T07:41:07;12.90;1.00
5980;DHT22;3016;50.308;8.258;2023-05-15T07:44:09;12.90;1.00
5980;DHT22;3016;50.308;8.258;2023-05-15T07:47:09;12.90;1.00
5980;DHT22;3016;50.308;8.258;2023-05-15T07:50:10;13.00;1.00
5980;DHT22;3016;50.308;8.258;2023-05-15T07:53:14;13.10;1.00
5980;DHT22;3016;50.308;8.258;2023-05-15T07:56:18;13.30;1.00
5980;DHT22;3016;50.308;8.258;2023-05-15T07:59:18;13.50;1.00
5980;DHT22;3016;50.308;8.258;2023-05-15T08:02:19;13.60;1.00
5980;DHT22;3016;50.308;8.258;2023-05-15T08:05:20;13.60;1.00
5980;DHT22;3016;50.308;8.258;2023-05-15T08:08:20;13.80;1.00
5980;DHT22;3016;50.308;8.258;2023-05-15T08:11:21;14.30;1.00
5980;DHT22;3016;50.308;8.258;2023-05-15T08:14:22;14.80;1.00
5980;DHT22;3016;50.308;8.258;2023-05-15T08:17:23;15.30;1.00
5980;DHT22;3016;50.308;8.258;2023-05-15T08:20:24;15.50;1.00
5980;DHT22;3016;50.308;8.258;2023-05-15T08:23:25;15.70;1.00
5980;DHT22;3016;50.308;8.258;2023-05-15T08:26:25;15.80;1.00
5980;DHT22;3016;50.308;8.258;2023-05-15T08:29:26;16.00;1.00
5980;DHT22;3016;50.308;8.258;2023-05-15T08:32:27;16.10;1.00
5980;DHT22;3016;50.308;8.258;2023-05-15T08:35:28;16.00;1.00
5980;DHT22;3016;50.308;8.258;2023-05-15T08:38:28;15.80;1.00
5980;DHT22;3016;50.308;8.258;2023-05-15T08:45:11;15.80;1.00
5980;DHT22;3016;50.308;8.258;2023-05-15T08:48:17;15.80;1.00
5980;DHT22;3016;50.308;8.258;2023-05-15T08:51:21;15.80;1.00
5980;DHT22;3016;50.308;8.258;2023-05-15T08:54:23;15.80;1.00
5980;DHT22;3016;50.308;8.258;2023-05-15T08:57:25;15.70;1.00
5980;DHT22;3016;50.308;8.258;2023-05-15T09:00:28;15.60;1.00
5980;DHT22;3016;50.308;8.258;2023-05-15T09:03:29;15.40;1.00
5980;DHT22;3016;50.308;8.258;2023-05-15T09:06:32;15.60;1.00
5980;DHT22;3016;50.308;8.258;2023-05-15T09:09:34;16.00;1.00
5980;DHT22;3016;50.308;8.258;2023-05-15T09:12:40;16.30;1.00
5980;DHT22;3016;50.308;8.258;2023-05-15T09:15:45;16.60;1.00
5980;DHT22;3016;50.308;8.258;2023-05-15T09:18:48;16.50;1.00
5980;DHT22;3016;50.308;8.258;2023-05-15T09:21:49;16.50;1.00
5980;DHT22;3016;50.308;8.258;2023-05-15T09:24:51;16.60;1.00
5980;DHT22;3016;50.308;8.258;2023-05-15T09:27:52;16.80;1.00
5980;DHT22;3016;50.308;8.258;2023-05-15T09:31:03;17.00;1.00
5980;DHT22;3016;50.308;8.258;2023-05-15T09:34:04;17.20;1.00
5980;DHT22;3016;50.308;8.258;2023-05-15T09:37:08;17.30;1.00
5980;DHT22;3016;50.308;8.258;2023-05-15T09:40:10;17.20;1.00
5980;DHT22;3016;50.308;8.258;2023-05-15T09:43:11;17.50;1.00
5980;DHT22;3016;50.308;8.258;2023-05-15T09:46:12;17.60;1.00
5980;DHT22;3016;50.308;8.258;2023-05-15T09:49:15;17.80;1.00
5980;DHT22;3016;50.308;8.258;2023-05-15T09:52:16;17.80;1.00
5980;DHT22;3016;50.308;8.258;2023-05-15T09:55:18;17.70;1.00
5980;DHT22;3016;50.308;8.258;2023-05-15T09:58:20;17.40;1.00
5980;DHT22;3016;50.308;8.258;2023-05-15T10:01:22;17.50;1.00
5980;DHT22;3016;50.308;8.258;2023-05-15T10:04:23;17.60;1.00
5980;DHT22;3016;50.308;8.258;2023-05-15T10:07:41;17.80;1.00
5980;DHT22;3016;50.308;8.258;2023-05-15T10:10:43;17.70;1.00
5980;DHT22;3016;50.308;8.258;2023-05-15T10:13:44;17.70;1.00
5980;DHT22;3016;50.308;8.258;2023-05-15T10:16:45;18.00;1.00
5980;DHT22;3016;50.308;8.258;2023-05-15T10:19:50;18.00;1.00
5980;DHT22;3016;50.308;8.258;2023-05-15T10:22:52;18.20;1.00
5980;DHT22;3016;50.308;8.258;2023-05-15T10:26:00;18.20;1.00
5980;DHT22;3016;50.308;8.258;2023-05-15T10:29:14;18.10;1.00
5980;DHT22;3016;50.308;8.258;2023-05-15T10:32:17;18.30;1.00
5980;DHT22;3016;50.308;8.258;2023-05-15T10:35:19;18.30;1.00
5980;DHT22;3016;50.308;8.258;2023-05-15T10:38:20;18.20;1.00
5980;DHT22;3016;50.308;8.258;2023-05-15T10:41:22;18.20;1.00
5980;DHT22;3016;50.308;8.258;2023-05-15T10:44:24;18.30;1.00
5980;DHT22;3016;50.308;8.258;2023-05-15T10:47:25;18.50;1.00
5980;DHT22;3016;50.308;8.258;2023-05-15T10:50:26;18.60;1.00
5980;DHT22;3016;50.308;8.258;2023-05-15T10:53:27;18.30;1.00
5980;DHT22;3016;50.308;8.258;2023-05-15T10:56:36;18.40;1.00
5980;DHT22;3016;50.308;8.258;2023-05-15T10:59:38;18.50;1.00
5980;DHT22;3016;50.308;8.258;2023-05-15T11:02:40;18.60;1.00
5980;DHT22;3016;50.308;8.258;2023-05-15T11:06:07;18.60;1.00
5980;DHT22;3016;50.308;8.258;2023-05-15T11:12:22;18.50;1.00
5980;DHT22;3016;50.308;8.258;2023-05-15T11:15:23;18.40;1.00
5980;DHT22;3016;50.308;8.258;2023-05-15T11:18:24;18.50;1.00
5980;DHT22;3016;50.308;8.258;2023-05-15T11:21:30;18.40;1.00
5980;DHT22;3016;50.308;8.258;2023-05-15T11:24:46;18.30;1.00
5980;DHT22;3016;50.308;8.258;2023-05-15T11:27:54;18.40;1.00
5980;DHT22;3016;50.308;8.258;2023-05-15T11:30:58;18.40;1.00
5980;DHT22;3016;50.308;8.258;2023-05-15T11:34:04;18.60;1.00
5980;DHT22;3016;50.308;8.258;2023-05-15T11:37:11;18.70;1.00
5980;DHT22;3016;50.308;8.258;2023-05-15T11:40:23;18.80;1.00
5980;DHT22;3016;50.308;8.258;2023-05-15T11:43:34;18.80;1.00
5980;DHT22;3016;50.308;8.258;2023-05-15T11:46:36;18.90;1.00
5980;DHT22;3016;50.308;8.258;2023-05-15T11:49:37;19.00;1.00
5980;DHT22;3016;50.308;8.258;2023-05-15T11:52:38;19.00;1.00
5980;DHT22;3016;50.308;8.258;2023-05-15T11:55:41;19.00;1.00
5980;DHT22;3016;50.308;8.258;2023-05-15T11:58:43;18.90;1.00
5980;DHT22;3016;50.308;8.258;2023-05-15T12:01:44;19.00;1.00
5980;DHT22;3016;50.308;8.258;2023-05-15T12:04:48;19.20;1.00
5980;DHT22;3016;50.308;8.258;2023-05-15T12:07:50;19.30;1.00
5980;DHT22;3016;50.308;8.258;2023-05-15T12:10:51;19.30;1.00
5980;DHT22;3016;50.308;8.258;2023-05-15T12:13:53;19.40;1.00
5980;DHT22;3016;50.308;8.258;2023-05-15T12:16:54;19.50;1.00
5980;DHT22;3016;50.308;8.258;2023-05-15T12:20:02;19.60;1.00
5980;DHT22;3016;50.308;8.258;2023-05-15T12:23:06;19.80;1.00
5980;DHT22;3016;50.308;8.258;2023-05-15T12:26:07;19.50;1.00
5980;DHT22;3016;50.308;8.258;2023-05-15T12:29:08;19.50;1.00
5980;DHT22;3016;50.308;8.258;2023-05-15T12:32:09;19.70;1.00
5980;DHT22;3016;50.308;8.258;2023-05-15T12:35:10;19.90;1.00
5980;DHT22;3016;50.308;8.258;2023-05-15T12:38:14;19.80;1.00
5980;DHT22;3016;50.308;8.258;2023-05-15T12:41:16;19.80;1.00
5980;DHT22;3016;50.308;8.258;2023-05-15T12:44:17;19.90;1.00
5980;DHT22;3016;50.308;8.258;2023-05-15T12:47:25;20.00;1.00
5980;DHT22;3016;50.308;8.258;2023-05-15T12:50:26;20.10;1.00
5980;DHT22;3016;50.308;8.258;2023-05-15T12:53:31;20.00;1.00
5980;DHT22;3016;50.308;8.258;2023-05-15T12:56:33;19.90;1.00
5980;DHT22;3016;50.308;8.258;2023-05-15T12:59:34;19.80;1.00
5980;DHT22;3016;50.308;8.258;2023-05-15T13:02:35;19.60;1.00
5980;DHT22;3016;50.308;8.258;2023-05-15T13:05:37;19.50;1.00
5980;DHT22;3016;50.308;8.258;2023-05-15T13:08:41;19.60;1.00
5980;DHT22;3016;50.308;8.258;2023-05-15T13:11:42;19.80;1.00
5980;DHT22;3016;50.308;8.258;2023-05-15T13:14:44;19.80;1.00
5980;DHT22;3016;50.308;8.258;2023-05-15T13:17:45;19.70;1.00
5980;DHT22;3016;50.308;8.258;2023-05-15T13:20:48;19.90;1.00
5980;DHT22;3016;50.308;8.258;2023-05-15T13:23:51;20.10;1.00
5980;DHT22;3016;50.308;8.258;2023-05-15T13:26:51;20.30;1.00
5980;DHT22;3016;50.308;8.258;2023-05-15T13:29:52;20.50;1.00
5980;DHT22;3016;50.308;8.258;2023-05-15T13:32:53;20.80;1.00
5980;DHT22;3016;50.308;8.258;2023-05-15T13:35:54;20.80;1.00
5980;DHT22;3016;50.308;8.258;2023-05-15T13:38:56;20.90;1.00
5980;DHT22;3016;50.308;8.258;2023-05-15T13:41:57;20.70;1.00
5980;DHT22;3016;50.308;8.258;2023-05-15T13:44:57;20.80;1.00
5980;DHT22;3016;50.308;8.258;2023-05-15T13:47:58;20.70;1.00
5980;DHT22;3016;50.308;8.258;2023-05-15T13:50:59;20.60;1.00
5980;DHT22;3016;50.308;8.258;2023-05-15T13:54:00;20.60;1.00
5980;DHT22;3016;50.308;8.258;2023-05-15T13:57:01;20.80;1.00
5980;DHT22;3016;50.308;8.258;2023-05-15T14:00:02;20.80;1.00
5980;DHT22;3016;50.308;8.258;2023-05-15T14:03:06;21.00;1.00
5980;DHT22;3016;50.308;8.258;2023-05-15T14:06:07;20.90;1.00
5980;DHT22;3016;50.308;8.258;2023-05-15T14:09:08;20.80;1.00
5980;DHT22;3016;50.308;8.258;2023-05-15T14:12:09;20.70;1.00
5980;DHT22;3016;50.308;8.258;2023-05-15T14:15:10;20.30;1.00
5980;DHT22;3016;50.308;8.258;2023-05-15T14:18:11;19.80;1.00
5980;DHT22;3016;50.308;8.258;2023-05-15T14:21:12;19.30;1.00
5980;DHT22;3016;50.308;8.258;2023-05-15T14:24:12;19.00;1.00
5980;DHT22;3016;50.308;8.258;2023-05-15T14:27:13;18.80;1.00
5980;DHT22;3016;50.308;8.258;2023-05-15T14:30:14;18.60;1.00
5980;DHT22;3016;50.308;8.258;2023-05-15T14:33:14;18.30;1.00
5980;DHT22;3016;50.308;8.258;2023-05-15T14:36:15;18.30;1.00
5980;DHT22;3016;50.308;8.258;2023-05-15T14:39:16;18.20;1.00
5980;DHT22;3016;50.308;8.258;2023-05-15T14:42:19;18.10;1.00
5980;DHT22;3016;50.308;8.258;2023-05-15T14:45:20;18.00;1.00
5980;DHT22;3016;50.308;8.258;2023-05-15T14:48:21;17.90;1.00
5980;DHT22;3016;50.308;8.258;2023-05-15T14:51:22;17.90;1.00
5980;DHT22;3016;50.308;8.258;2023-05-15T14:54:22;18.00;1.00
5980;DHT22;3016;50.308;8.258;2023-05-15T14:57:23;18.00;1.00
5980;DHT22;3016;50.308;8.258;2023-05-15T15:00:24;18.00;1.00
5980;DHT22;3016;50.308;8.258;2023-05-15T15:03:24;18.20;1.00
5980;DHT22;3016;50.308;8.258;2023-05-15T15:06:25;18.50;1.00
5980;DHT22;3016;50.308;8.258;2023-05-15T15:09:26;18.60;1.00
5980;DHT22;3016;50.308;8.258;2023-05-15T15:12:27;18.80;1.00
5980;DHT22;3016;50.308;8.258;2023-05-15T15:15:29;18.70;1.00
5980;DHT22;3016;50.308;8.258;2023-05-15T15:18:30;18.70;1.00
5980;DHT22;3016;50.308;8.258;2023-05-15T15:21:31;18.60;1.00
5980;DHT22;3016;50.308;8.258;2023-05-15T15:24:31;18.60;1.00
5980;DHT22;3016;50.308;8.258;2023-05-15T15:27:33;18.50;1.00
5980;DHT22;3016;50.308;8.258;2023-05-15T15:30:36;18.30;1.00
5980;DHT22;3016;50.308;8.258;2023-05-15T15:33:37;18.30;1.00
5980;DHT22;3016;50.308;8.258;2023-05-15T15:36:38;18.30;1.00
5980;DHT22;3016;50.308;8.258;2023-05-15T15:39:40;18.30;1.00
5980;DHT22;3016;50.308;8.258;2023-05-15T15:42:41;18.30;1.00
5980;DHT22;3016;50.308;8.258;2023-05-15T15:45:42;18.20;1.00
5980;DHT22;3016;50.308;8.258;2023-05-15T15:48:42;18.20;1.00
5980;DHT22;3016;50.308;8.258;2023-05-15T15:51:43;18.20;1.00
5980;DHT22;3016;50.308;8.258;2023-05-15T15:54:44;18.10;1.00
5980;DHT22;3016;50.308;8.258;2023-05-15T15:57:48;17.80;1.00
5980;DHT22;3016;50.308;8.258;2023-05-15T16:00:48;17.60;1.00
5980;DHT22;3016;50.308;8.258;2023-05-15T16:03:49;17.50;1.00
5980;DHT22;3016;50.308;8.258;2023-05-15T16:06:50;17.40;1.00
5980;DHT22;3016;50.308;8.258;2023-05-15T16:09:50;17.40;1.00
5980;DHT22;3016;50.308;8.258;2023-05-15T16:12:52;17.30;1.00
5980;DHT22;3016;50.308;8.258;2023-05-15T16:15:52;17.20;1.00
5980;DHT22;3016;50.308;8.258;2023-05-15T16:18:53;17.10;1.00
5980;DHT22;3016;50.308;8.258;2023-05-15T16:21:54;17.00;1.00
5980;DHT22;3016;50.308;8.258;2023-05-15T16:24:54;17.00;1.00
5980;DHT22;3016;50.308;8.258;2023-05-15T16:27:55;16.90;1.00
5980;DHT22;3016;50.308;8.258;2023-05-15T16:30:57;16.90;1.00
5980;DHT22;3016;50.308;8.258;2023-05-15T16:33:58;17.00;1.00
5980;DHT22;3016;50.308;8.258;2023-05-15T16:36:59;17.10;1.00
5980;DHT22;3016;50.308;8.258;2023-05-15T16:40:00;17.40;1.00
5980;DHT22;3016;50.308;8.258;2023-05-15T16:43:01;17.80;1.00
5980;DHT22;3016;50.308;8.258;2023-05-15T16:46:01;18.10;1.00
5980;DHT22;3016;50.308;8.258;2023-05-15T16:49:03;18.50;1.00
5980;DHT22;3016;50.308;8.258;2023-05-15T16:52:04;18.80;1.00
5980;DHT22;3016;50.308;8.258;2023-05-15T16:55:05;18.80;1.00
5980;DHT22;3016;50.308;8.258;2023-05-15T16:58:06;18.90;1.00
5980;DHT22;3016;50.308;8.258;2023-05-15T17:01:07;19.00;1.00
5980;DHT22;3016;50.308;8.258;2023-05-15T17:04:08;18.80;1.00
5980;DHT22;3016;50.308;8.258;2023-05-15T17:07:09;18.70;1.00
5980;DHT22;3016;50.308;8.258;2023-05-15T17:10:11;18.50;1.00
5980;DHT22;3016;50.308;8.258;2023-05-15T17:13:12;18.60;1.00
5980;DHT22;3016;50.308;8.258;2023-05-15T17:16:12;18.60;1.00
5980;DHT22;3016;50.308;8.258;2023-05-15T17:19:13;18.80;1.00
5980;DHT22;3016;50.308;8.258;2023-05-15T17:22:14;19.00;1.00
5980;DHT22;3016;50.308;8.258;2023-05-15T17:25:14;19.10;1.00
5980;DHT22;3016;50.308;8.258;2023-05-15T17:28:15;19.20;1.00
5980;DHT22;3016;50.308;8.258;2023-05-15T17:31:16;19.30;1.00
5980;DHT22;3016;50.308;8.258;2023-05-15T17:34:17;19.20;1.00
5980;DHT22;3016;50.308;8.258;2023-05-15T17:37:17;19.20;1.00
5980;DHT22;3016;50.308;8.258;2023-05-15T17:40:18;19.10;1.00
5980;DHT22;3016;50.308;8.258;2023-05-15T17:43:19;19.10;1.00
5980;DHT22;3016;50.308;8.258;2023-05-15T17:46:19;19.10;1.00
5980;DHT22;3016;50.308;8.258;2023-05-15T17:49:20;19.10;1.00
5980;DHT22;3016;50.308;8.258;2023-05-15T17:52:21;19.10;1.00
5980;DHT22;3016;50.308;8.258;2023-05-15T17:55:22;18.90;1.00
5980;DHT22;3016;50.308;8.258;2023-05-15T17:58:22;18.60;1.00
5980;DHT22;3016;50.308;8.258;2023-05-15T18:01:23;18.30;1.00
5980;DHT22;3016;50.308;8.258;2023-05-15T18:04:24;18.20;1.00
5980;DHT22;3016;50.308;8.258;2023-05-15T18:07:25;18.00;1.00
5980;DHT22;3016;50.308;8.258;2023-05-15T18:10:25;17.90;1.00
5980;DHT22;3016;50.308;8.258;2023-05-15T18:13:26;17.80;1.00
5980;DHT22;3016;50.308;8.258;2023-05-15T18:16:27;17.70;1.00
5980;DHT22;3016;50.308;8.258;2023-05-15T18:19:28;17.50;1.00
5980;DHT22;3016;50.308;8.258;2023-05-15T18:22:29;17.30;1.00
5980;DHT22;3016;50.308;8.258;2023-05-15T18:25:30;17.10;1.00
5980;DHT22;3016;50.308;8.258;2023-05-15T18:28:35;17.10;1.00
5980;DHT22;3016;50.308;8.258;2023-05-15T18:31:36;16.90;1.00
5980;DHT22;3016;50.308;8.258;2023-05-15T18:34:37;16.80;1.00
5980;DHT22;3016;50.308;8.258;2023-05-15T18:37:37;16.70;1.00
5980;DHT22;3016;50.308;8.258;2023-05-15T18:40:38;16.60;1.00
5980;DHT22;3016;50.308;8.258;2023-05-15T18:43:39;16.60;1.00
5980;DHT22;3016;50.308;8.258;2023-05-15T18:46:39;16.50;1.00
5980;DHT22;3016;50.308;8.258;2023-05-15T18:49:40;16.40;1.00
5980;DHT22;3016;50.308;8.258;2023-05-15T18:52:41;16.30;1.00
5980;DHT22;3016;50.308;8.258;2023-05-15T18:55:42;16.30;1.00
5980;DHT22;3016;50.308;8.258;2023-05-15T18:58:43;16.20;1.00
5980;DHT22;3016;50.308;8.258;2023-05-15T19:01:46;16.10;1.00
5980;DHT22;3016;50.308;8.258;2023-05-15T19:04:48;16.10;1.00
5980;DHT22;3016;50.308;8.258;2023-05-15T19:07:49;16.00;1.00
5980;DHT22;3016;50.308;8.258;2023-05-15T19:10:50;16.00;1.00
5980;DHT22;3016;50.308;8.258;2023-05-15T19:13:51;15.90;1.00
5980;DHT22;3016;50.308;8.258;2023-05-15T19:16:52;15.90;1.00
5980;DHT22;3016;50.308;8.258;2023-05-15T19:19:53;15.80;1.00
5980;DHT22;3016;50.308;8.258;2023-05-15T19:22:54;15.80;1.00
5980;DHT22;3016;50.308;8.258;2023-05-15T19:25:54;15.60;1.00
5980;DHT22;3016;50.308;8.258;2023-05-15T19:28:55;15.50;1.00
5980;DHT22;3016;50.308;8.258;2023-05-15T19:31:56;15.40;1.00
5980;DHT22;3016;50.308;8.258;2023-05-15T19:34:57;15.40;1.00
5980;DHT22;3016;50.308;8.258;2023-05-15T19:37:57;15.30;1.00
5980;DHT22;3016;50.308;8.258;2023-05-15T19:40:58;15.20;1.00
5980;DHT22;3016;50.308;8.258;2023-05-15T19:43:59;15.20;1.00
5980;DHT22;3016;50.308;8.258;2023-05-15T19:47:00;15.10;1.00
5980;DHT22;3016;50.308;8.258;2023-05-15T19:50:01;15.00;1.00
5980;DHT22;3016;50.308;8.258;2023-05-15T19:53:01;14.90;1.00
5980;DHT22;3016;50.308;8.258;2023-05-15T19:56:03;14.80;1.00
5980;DHT22;3016;50.308;8.258;2023-05-15T19:59:03;14.80;1.00
5980;DHT22;3016;50.308;8.258;2023-05-15T20:02:04;14.70;1.00
5980;DHT22;3016;50.308;8.258;2023-05-15T20:05:09;14.60;1.00
5980;DHT22;3016;50.308;8.258;2023-05-15T20:08:10;14.60;1.00
5980;DHT22;3016;50.308;8.258;2023-05-15T20:11:12;14.50;1.00
5980;DHT22;3016;50.308;8.258;2023-05-15T20:14:13;14.40;1.00
5980;DHT22;3016;50.308;8.258;2023-05-15T20:17:14;14.30;1.00
5980;DHT22;3016;50.308;8.258;2023-05-15T20:20:15;14.30;1.00
5980;DHT22;3016;50.308;8.258;2023-05-15T20:23:17;14.30;1.00
5980;DHT22;3016;50.308;8.258;2023-05-15T20:26:18;14.20;1.00
5980;DHT22;3016;50.308;8.258;2023-05-15T20:29:21;14.20;1.00
5980;DHT22;3016;50.308;8.258;2023-05-15T20:32:22;14.10;1.00
5980;DHT22;3016;50.308;8.258;2023-05-15T20:35:22;14.10;1.00
5980;DHT22;3016;50.308;8.258;2023-05-15T20:38:23;14.10;1.00